createdAt,value
2023-04-07T00:00:33.887Z,2.72
2023-04-07T00:03:00.615Z,2.77
2023-04-07T00:05:27.296Z,2.63
2023-04-07T00:07:56.809Z,2.44
2023-04-07T00:10:25.174Z,2.78
2023-04-07T00:12:52.107Z,2.70
2023-04-07T00:15:18.823Z,2.47
2023-04-07T00:17:45.468Z,2.39
2023-04-07T00:20:12.514Z,2.34
2023-04-07T00:22:39.196Z,2.38
2023-04-07T00:25:06.692Z,2.67
2023-04-07T00:27:33.333Z,2.81
2023-04-07T00:30:00.006Z,2.72
2023-04-07T00:32:26.707Z,2.67
2023-04-07T00:34:53.466Z,2.72
2023-04-07T00:37:20.250Z,2.52
2023-04-07T00:39:46.907Z,2.47
2023-04-07T00:42:14.014Z,2.47
2023-04-07T00:44:40.749Z,2.43
2023-04-07T00:47:07.440Z,2.28
2023-04-07T00:49:34.293Z,2.59
2023-04-07T00:52:01.282Z,2.47
2023-04-07T00:54:30.346Z,3.26
2023-04-07T00:56:57.307Z,3.22
2023-04-07T00:59:24.254Z,2.96
2023-04-07T01:02:23.647Z,2.24
2023-04-07T01:05:07.560Z,2.02
2023-04-07T01:07:58.416Z,2.45
2023-04-07T01:10:36.023Z,2.75
2023-04-07T01:13:15.153Z,2.81
2023-04-07T01:15:45.975Z,2.60
2023-04-07T01:18:21.893Z,2.67
2023-04-07T01:20:51.644Z,2.77
2023-04-07T01:23:32.514Z,2.93
2023-04-07T01:26:19.232Z,2.83
2023-04-07T01:29:19.977Z,2.45
2023-04-07T01:31:49.371Z,2.24
2023-04-07T01:34:17.589Z,2.46
2023-04-07T01:36:45.840Z,2.89
2023-04-07T01:39:13.704Z,3.33
2023-04-07T01:41:42.016Z,3.25
2023-04-07T01:44:09.893Z,2.90
2023-04-07T01:46:36.496Z,2.64
2023-04-07T01:49:04.952Z,2.50
2023-04-07T01:51:33.479Z,2.60
2023-04-07T01:54:02.202Z,2.66
2023-04-07T01:56:28.989Z,2.70
2023-04-07T01:58:55.626Z,2.88
2023-04-07T02:01:22.505Z,3.20
2023-04-07T02:03:55.471Z,3.38
2023-04-07T02:06:29.635Z,2.64
2023-04-07T02:09:00.539Z,3.09
2023-04-07T02:11:29.626Z,3.17
2023-04-07T02:13:57.702Z,2.84
2023-04-07T02:16:26.162Z,2.66
2023-04-07T02:18:53.173Z,2.39
2023-04-07T02:21:19.968Z,2.32
2023-04-07T02:23:47.038Z,2.24
2023-04-07T02:26:13.825Z,2.28
2023-04-07T02:28:40.697Z,2.44
2023-04-07T02:31:07.342Z,2.75
2023-04-07T02:33:33.987Z,2.42
2023-04-07T02:36:00.635Z,2.30
2023-04-07T02:38:27.264Z,2.17
2023-04-07T02:40:53.928Z,2.17
2023-04-07T02:43:23.999Z,2.37
2023-04-07T02:45:50.708Z,2.34
2023-04-07T02:48:17.435Z,2.51
2023-04-07T02:50:44.092Z,2.50
2023-04-07T02:53:10.845Z,2.43
2023-04-07T02:55:37.546Z,2.23
2023-04-07T02:58:04.158Z,2.09
2023-04-07T03:00:30.841Z,2.23
2023-04-07T03:02:57.646Z,3.23
2023-04-07T03:05:24.364Z,2.77
2023-04-07T03:07:51.064Z,2.34
2023-04-07T03:10:17.798Z,2.75
2023-04-07T03:12:44.638Z,2.15
2023-04-07T03:15:11.433Z,1.61
2023-04-07T03:17:38.273Z,1.88
2023-04-07T03:20:06.069Z,1.50
2023-04-07T03:22:32.689Z,1.64
2023-04-07T03:24:59.426Z,2.62
2023-04-07T03:27:26.188Z,2.60
2023-04-07T03:29:54.390Z,2.66
2023-04-07T03:32:21.094Z,2.52
2023-04-07T03:34:47.709Z,2.44
2023-04-07T03:37:14.366Z,2.44
2023-04-07T03:39:41.116Z,2.77
2023-04-07T03:42:08.052Z,2.12
2023-04-07T03:44:34.689Z,2.10
2023-04-07T03:47:01.591Z,2.21
2023-04-07T03:49:28.494Z,2.15
2023-04-07T03:51:55.201Z,2.22
2023-04-07T03:54:21.784Z,2.31
2023-04-07T03:56:48.679Z,2.27
2023-04-07T03:59:15.373Z,2.36
2023-04-07T04:01:42.346Z,2.33
2023-04-07T04:04:09.189Z,2.42
2023-04-07T04:06:36.028Z,2.26
2023-04-07T04:09:02.800Z,2.36
2023-04-07T04:11:29.487Z,2.27
2023-04-07T04:13:56.293Z,2.17
2023-04-07T04:16:23.037Z,2.18
2023-04-07T04:18:49.654Z,2.32
2023-04-07T04:21:16.366Z,2.46
2023-04-07T04:23:43.118Z,3.65
2023-04-07T04:26:09.779Z,3.91
2023-04-07T04:28:36.770Z,3.37
2023-04-07T04:31:04.254Z,2.78
2023-04-07T04:33:30.962Z,2.57
2023-04-07T04:35:57.791Z,2.54
2023-04-07T04:38:24.413Z,2.49
2023-04-07T04:40:51.182Z,2.51
2023-04-07T04:43:17.840Z,2.46
2023-04-07T04:45:44.492Z,2.53
2023-04-07T04:48:11.536Z,2.59
2023-04-07T04:50:38.173Z,2.68
2023-04-07T04:53:04.808Z,2.90
2023-04-07T04:55:31.555Z,3.13
2023-04-07T04:57:58.264Z,2.99
2023-04-07T05:00:25.106Z,2.62
2023-04-07T05:02:51.945Z,2.29
2023-04-07T05:05:18.792Z,2.68
2023-04-07T05:07:45.460Z,2.74
2023-04-07T05:10:12.088Z,2.67
2023-04-07T05:12:38.914Z,3.35
2023-04-07T05:15:06.522Z,3.49
2023-04-07T05:17:33.234Z,3.52
2023-04-07T05:19:59.878Z,3.51
2023-04-07T05:22:26.483Z,3.68
2023-04-07T05:24:53.200Z,3.61
2023-04-07T05:27:19.900Z,3.65
2023-04-07T05:29:46.559Z,3.97
2023-04-07T05:32:13.406Z,3.77
2023-04-07T05:34:40.244Z,3.95
2023-04-07T05:37:07.017Z,3.69
2023-04-07T05:39:33.713Z,3.54
2023-04-07T05:42:00.382Z,3.31
2023-04-07T05:44:27.255Z,3.37
2023-04-07T05:46:54.039Z,3.24
2023-04-07T05:49:20.851Z,3.46
2023-04-07T05:51:48.989Z,3.21
2023-04-07T05:54:16.048Z,3.13
2023-04-07T05:56:42.696Z,3.17
2023-04-07T05:59:09.429Z,3.03
2023-04-07T06:01:36.124Z,3.34
2023-04-07T06:04:02.938Z,3.77
2023-04-07T06:06:29.658Z,3.79
2023-04-07T06:08:56.307Z,3.39
2023-04-07T06:11:22.947Z,3.64
2023-04-07T06:13:49.961Z,3.79
2023-04-07T06:16:18.349Z,4.24
2023-04-07T06:18:46.558Z,4.07
2023-04-07T06:21:13.211Z,3.36
2023-04-07T06:23:39.826Z,3.85
2023-04-07T06:26:06.636Z,3.90
2023-04-07T06:28:33.269Z,3.64
2023-04-07T06:31:00.194Z,3.58
2023-04-07T06:33:26.895Z,3.49
2023-04-07T06:35:53.582Z,3.77
2023-04-07T06:38:20.592Z,3.91
2023-04-07T06:40:47.224Z,3.81
2023-04-07T06:43:13.840Z,3.42
2023-04-07T06:45:40.614Z,3.72
2023-04-07T06:48:07.666Z,3.12
2023-04-07T06:50:34.472Z,3.44
2023-04-07T06:53:01.213Z,3.42
2023-04-07T06:55:27.904Z,3.46
2023-04-07T06:57:54.527Z,3.29
2023-04-07T07:00:21.407Z,3.63
2023-04-07T07:02:48.325Z,3.70
2023-04-07T07:05:15.347Z,3.60
2023-04-07T07:07:41.961Z,3.17
2023-04-07T07:10:11.519Z,3.49
2023-04-07T07:12:38.204Z,3.51
2023-04-07T07:15:05.520Z,3.59
2023-04-07T07:17:32.217Z,3.32
2023-04-07T07:19:58.926Z,3.93
2023-04-07T07:22:25.756Z,3.79
2023-04-07T07:24:52.683Z,3.57
2023-04-07T07:27:19.472Z,3.03
2023-04-07T07:29:46.089Z,2.94
2023-04-07T07:32:14.327Z,2.97
2023-04-07T07:34:41.025Z,3.43
2023-04-07T07:37:07.644Z,3.71
2023-04-07T07:39:34.317Z,4.18
2023-04-07T07:42:01.026Z,4.17
2023-04-07T07:44:27.731Z,4.38
2023-04-07T07:46:54.571Z,3.74
2023-04-07T07:49:21.193Z,3.44
2023-04-07T07:51:47.812Z,3.61
2023-04-07T07:54:14.505Z,3.71
2023-04-07T07:56:41.174Z,3.40
2023-04-07T07:59:07.859Z,3.53
2023-04-07T08:01:34.534Z,3.76
2023-04-07T08:04:01.709Z,3.83
2023-04-07T08:06:28.441Z,3.40
2023-04-07T08:08:55.156Z,3.33
2023-04-07T08:11:21.844Z,3.39
2023-04-07T08:13:48.649Z,3.59
2023-04-07T08:16:15.717Z,3.78
2023-04-07T08:18:42.392Z,3.32
2023-04-07T08:21:09.042Z,3.51
2023-04-07T08:23:35.882Z,3.03
2023-04-07T08:26:02.502Z,2.70
2023-04-07T08:28:29.153Z,2.95
2023-04-07T08:30:55.881Z,2.87
2023-04-07T08:33:22.529Z,3.01
2023-04-07T08:35:49.252Z,3.62
2023-04-07T08:38:16.018Z,3.26
2023-04-07T08:40:42.937Z,3.49
2023-04-07T08:43:10.389Z,3.46
2023-04-07T08:45:40.163Z,3.76
2023-04-07T08:48:16.507Z,3.33
2023-04-07T08:50:45.400Z,3.51
2023-04-07T08:53:13.950Z,4.37
2023-04-07T08:55:41.801Z,4.30
2023-04-07T08:58:11.892Z,4.03
2023-04-07T09:00:40.874Z,4.11
2023-04-07T09:05:36.155Z,3.43
2023-04-07T09:08:03.388Z,3.24
2023-04-07T09:10:30.691Z,3.30
2023-04-07T09:12:59.218Z,3.38
2023-04-07T09:15:30.568Z,3.22
2023-04-07T09:17:57.744Z,3.17
2023-04-07T09:20:24.467Z,3.30
2023-04-07T09:22:51.746Z,3.43
2023-04-07T09:25:23.595Z,3.63
2023-04-07T09:28:00.281Z,3.25
2023-04-07T09:30:28.540Z,3.25
2023-04-07T09:32:55.403Z,3.73
2023-04-07T09:35:22.550Z,3.62
2023-04-07T09:38:21.837Z,3.57
2023-04-07T09:40:48.547Z,3.39
2023-04-07T09:43:18.100Z,3.13
2023-04-07T09:45:45.066Z,2.54
2023-04-07T09:48:21.769Z,2.85
2023-04-07T09:50:48.887Z,3.46
2023-04-07T09:53:16.363Z,2.74
2023-04-07T09:55:43.695Z,3.11
2023-04-07T09:58:13.069Z,3.65
2023-04-07T10:00:41.387Z,3.75
2023-04-07T10:03:08.470Z,4.43
2023-04-07T10:05:35.350Z,4.12
2023-04-07T10:08:02.399Z,4.10
2023-04-07T10:10:30.221Z,4.09
2023-04-07T10:12:57.453Z,3.98
2023-04-07T10:15:24.561Z,3.95
2023-04-07T10:17:52.019Z,3.88
2023-04-07T10:20:19.706Z,3.51
2023-04-07T10:22:49.314Z,2.94
2023-04-07T10:25:19.722Z,3.45
2023-04-07T10:27:56.886Z,4.19
2023-04-07T10:30:32.839Z,4.12
2023-04-07T10:32:59.674Z,3.09
2023-04-07T10:35:26.957Z,3.06
2023-04-07T10:38:09.006Z,3.06
2023-04-07T10:40:36.666Z,2.71
2023-04-07T10:43:04.579Z,3.53
2023-04-07T10:45:49.843Z,4.44
2023-04-07T10:48:18.343Z,4.64
2023-04-07T10:50:46.357Z,4.50
2023-04-07T10:53:15.105Z,4.44
2023-04-07T10:55:54.663Z,4.31
2023-04-07T10:58:25.777Z,4.42
2023-04-07T11:01:01.470Z,4.61
2023-04-07T11:03:30.022Z,4.47
2023-04-07T11:06:07.148Z,3.93
2023-04-07T11:08:44.201Z,4.11
2023-04-07T11:11:13.411Z,3.82
2023-04-07T11:13:41.235Z,4.46
2023-04-07T11:16:08.306Z,4.61
2023-04-07T11:18:36.225Z,4.36
2023-04-07T11:21:03.956Z,4.59
2023-04-07T11:23:30.560Z,4.43
2023-04-07T11:26:01.720Z,4.09
2023-04-07T11:28:31.746Z,4.73
2023-04-07T11:30:59.089Z,4.39
2023-04-07T11:33:27.674Z,4.15
2023-04-07T11:36:01.517Z,4.48
2023-04-07T11:38:38.814Z,4.99
2023-04-07T11:41:13.983Z,5.38
2023-04-07T11:43:40.750Z,5.18
2023-04-07T11:46:10.139Z,5.00
2023-04-07T11:48:41.092Z,4.52
2023-04-07T11:51:18.929Z,4.97
2023-04-07T11:53:46.663Z,4.82
2023-04-07T11:56:15.704Z,5.08
2023-04-07T11:58:54.832Z,5.21
2023-04-07T12:01:23.476Z,5.13
2023-04-07T12:04:02.215Z,5.76
2023-04-07T12:06:31.137Z,6.02
2023-04-07T12:08:57.749Z,5.74
2023-04-07T12:11:24.668Z,5.82
2023-04-07T12:13:51.405Z,5.56
2023-04-07T12:16:18.169Z,5.83
2023-04-07T12:18:45.179Z,5.81
2023-04-07T12:21:11.800Z,5.63
2023-04-07T12:23:38.407Z,5.98
2023-04-07T12:26:05.064Z,6.33
2023-04-07T12:28:31.673Z,5.85
2023-04-07T12:30:58.338Z,6.08
2023-04-07T12:33:25.123Z,5.14
2023-04-07T12:35:52.114Z,5.03
2023-04-07T12:38:18.798Z,5.31
2023-04-07T12:40:45.532Z,5.56
2023-04-07T12:43:12.270Z,5.12
2023-04-07T12:45:39.283Z,5.65
2023-04-07T12:48:06.122Z,6.08
2023-04-07T12:50:32.928Z,6.38
2023-04-07T12:52:59.574Z,6.43
2023-04-07T12:55:26.448Z,6.00
2023-04-07T12:57:53.132Z,6.02
2023-04-07T13:00:19.887Z,5.07
2023-04-07T13:02:46.818Z,5.21
2023-04-07T13:05:13.546Z,5.56
2023-04-07T13:07:40.235Z,5.62
2023-04-07T13:10:07.568Z,5.68
2023-04-07T13:12:34.468Z,6.54
2023-04-07T13:15:01.110Z,6.27
2023-04-07T13:17:28.476Z,5.21
2023-04-07T13:19:55.822Z,5.94
2023-04-07T13:22:24.479Z,5.81
2023-04-07T13:24:52.586Z,6.13
2023-04-07T13:27:19.336Z,5.93
2023-04-07T13:29:46.070Z,6.50
2023-04-07T13:32:12.883Z,6.46
2023-04-07T13:34:39.611Z,6.28
2023-04-07T13:37:06.369Z,6.58
2023-04-07T13:39:33.674Z,5.92
2023-04-07T13:42:00.325Z,6.34
2023-04-07T13:44:28.199Z,6.33
2023-04-07T13:46:56.689Z,6.13
2023-04-07T13:49:23.561Z,6.26
2023-04-07T13:51:50.224Z,6.38
2023-04-07T13:54:17.472Z,5.90
2023-04-07T13:56:44.243Z,6.12
2023-04-07T13:59:10.992Z,5.74
2023-04-07T14:01:37.884Z,5.24
2023-04-07T14:04:05.194Z,5.81
2023-04-07T14:06:32.075Z,6.18
2023-04-07T14:08:59.023Z,6.51
2023-04-07T14:11:25.819Z,5.41
2023-04-07T14:13:52.962Z,5.91
2023-04-07T14:16:19.605Z,6.09
2023-04-07T14:18:46.316Z,6.36
2023-04-07T14:21:13.205Z,6.36
2023-04-07T14:23:39.893Z,6.03
2023-04-07T14:26:10.047Z,5.81
2023-04-07T14:28:36.791Z,5.83
2023-04-07T14:31:03.559Z,6.33
2023-04-07T14:33:30.286Z,6.46
2023-04-07T14:35:57.112Z,6.54
2023-04-07T14:38:23.798Z,6.10
2023-04-07T14:40:50.545Z,6.18
2023-04-07T14:43:17.192Z,5.77
2023-04-07T14:45:43.974Z,6.14
2023-04-07T14:48:10.669Z,6.46
2023-04-07T14:50:37.495Z,5.86
2023-04-07T14:53:04.112Z,6.37
2023-04-07T14:55:30.814Z,6.26
2023-04-07T14:57:57.444Z,6.57
2023-04-07T15:00:24.108Z,6.43
2023-04-07T15:02:51.007Z,6.57
2023-04-07T15:05:17.983Z,6.80
2023-04-07T15:07:44.694Z,6.99
2023-04-07T15:10:11.399Z,6.99
2023-04-07T15:12:38.112Z,6.75
2023-04-07T15:15:05.220Z,6.42
2023-04-07T15:17:42.987Z,6.33
2023-04-07T15:20:10.874Z,6.69
2023-04-07T15:22:37.594Z,6.97
2023-04-07T15:25:04.653Z,6.58
2023-04-07T15:27:31.291Z,6.60
2023-04-07T15:29:57.964Z,6.62
2023-04-07T15:32:24.773Z,6.39
2023-04-07T15:34:51.444Z,6.58
2023-04-07T15:37:18.059Z,6.08
2023-04-07T15:39:44.830Z,6.19
2023-04-07T15:42:11.518Z,6.01
2023-04-07T15:44:38.779Z,6.38
2023-04-07T15:47:06.449Z,6.42
2023-04-07T15:49:33.326Z,6.28
2023-04-07T15:52:00.914Z,6.26
2023-04-07T15:54:27.647Z,6.07
2023-04-07T15:56:54.275Z,6.54
2023-04-07T15:59:20.923Z,6.56
2023-04-07T16:01:48.374Z,6.43
2023-04-07T16:04:15.474Z,6.52
2023-04-07T16:06:42.173Z,6.26
2023-04-07T16:09:08.825Z,6.25
2023-04-07T16:11:35.680Z,6.10
2023-04-07T16:14:02.454Z,5.94
2023-04-07T16:16:31.279Z,6.01
2023-04-07T16:18:57.958Z,6.01
2023-04-07T16:21:24.735Z,5.98
2023-04-07T16:23:51.380Z,5.95
2023-04-07T16:26:18.011Z,6.13
2023-04-07T16:28:44.650Z,5.89
2023-04-07T16:31:11.267Z,5.73
2023-04-07T16:33:37.962Z,5.98
2023-04-07T16:36:06.659Z,6.13
2023-04-07T16:38:33.292Z,5.98
2023-04-07T16:41:04.584Z,5.89
2023-04-07T16:43:31.763Z,6.04
2023-04-07T16:45:58.422Z,5.98
2023-04-07T16:48:25.111Z,6.25
2023-04-07T16:50:51.918Z,6.07
2023-04-07T16:53:20.926Z,6.18
2023-04-07T16:55:48.072Z,6.15
2023-04-07T16:58:17.655Z,5.27
2023-04-07T17:00:44.726Z,5.62
2023-04-07T17:03:14.389Z,6.00
2023-04-07T17:05:50.364Z,5.98
2023-04-07T17:08:17.057Z,5.89
2023-04-07T17:10:43.697Z,5.80
2023-04-07T17:13:10.361Z,5.57
2023-04-07T17:15:37.069Z,5.90
2023-04-07T17:18:04.080Z,5.91
2023-04-07T17:20:30.791Z,5.76
2023-04-07T17:22:57.395Z,5.75
2023-04-07T17:25:24.094Z,5.81
2023-04-07T17:27:50.782Z,5.59
2023-04-07T17:30:17.555Z,5.47
2023-04-07T17:32:44.263Z,5.72
2023-04-07T17:35:10.977Z,5.54
2023-04-07T17:37:37.731Z,5.23
2023-04-07T17:40:04.984Z,5.35
2023-04-07T17:42:31.670Z,5.89
2023-04-07T17:44:58.555Z,5.59
2023-04-07T17:47:25.263Z,5.46
2023-04-07T17:49:52.047Z,5.48
2023-04-07T17:52:18.680Z,5.64
2023-04-07T17:54:45.328Z,5.59
2023-04-07T17:57:12.196Z,5.82
2023-04-07T17:59:38.804Z,5.49
2023-04-07T18:02:05.726Z,5.38
2023-04-07T18:04:34.575Z,5.45
2023-04-07T18:07:01.250Z,5.66
2023-04-07T18:09:27.847Z,5.80
2023-04-07T18:11:54.510Z,5.71
2023-04-07T18:14:21.250Z,5.58
2023-04-07T18:16:47.960Z,5.72
2023-04-07T18:19:14.650Z,5.56
2023-04-07T18:21:41.382Z,4.92
2023-04-07T18:24:07.986Z,5.03
2023-04-07T18:26:35.255Z,5.36
2023-04-07T18:29:01.891Z,5.05
2023-04-07T18:31:28.610Z,5.22
2023-04-07T18:33:55.423Z,5.18
2023-04-07T18:36:22.277Z,5.40
2023-04-07T18:38:48.956Z,5.21
2023-04-07T18:41:15.554Z,5.42
2023-04-07T18:43:42.175Z,5.47
2023-04-07T18:46:08.880Z,5.07
2023-04-07T18:48:35.490Z,4.99
2023-04-07T18:51:03.051Z,5.20
2023-04-07T18:53:29.686Z,5.46
2023-04-07T18:55:56.308Z,5.39
2023-04-07T18:58:22.954Z,5.57
2023-04-07T19:00:49.688Z,5.66
2023-04-07T19:03:16.699Z,5.35
2023-04-07T19:05:47.224Z,5.39
2023-04-07T19:08:15.343Z,5.27
2023-04-07T19:10:42.064Z,5.30
2023-04-07T19:13:08.751Z,5.29
2023-04-07T19:15:35.540Z,5.24
2023-04-07T19:18:02.628Z,4.98
2023-04-07T19:20:29.487Z,5.25
2023-04-07T19:22:56.869Z,5.20
2023-04-07T19:25:24.108Z,5.05
2023-04-07T19:27:51.417Z,5.32
2023-04-07T19:30:20.863Z,5.28
2023-04-07T19:32:47.859Z,4.64
2023-04-07T19:35:17.779Z,5.09
2023-04-07T19:37:45.662Z,5.15
2023-04-07T19:40:14.092Z,4.98
2023-04-07T19:42:41.436Z,4.86
2023-04-07T19:45:08.620Z,5.28
2023-04-07T19:47:35.998Z,5.00
2023-04-07T19:50:03.456Z,5.06
2023-04-07T19:52:37.207Z,4.99
2023-04-07T19:55:04.249Z,4.55
2023-04-07T19:57:31.508Z,4.65
2023-04-07T19:59:58.382Z,4.98
2023-04-07T20:02:25.177Z,4.94
2023-04-07T20:04:53.141Z,5.07
2023-04-07T20:07:19.796Z,4.97
2023-04-07T20:09:46.577Z,4.75
2023-04-07T20:12:13.446Z,4.81
2023-04-07T20:14:40.174Z,4.86
2023-04-07T20:17:06.855Z,4.91
2023-04-07T20:19:33.664Z,4.82
2023-04-07T20:22:00.362Z,4.99
2023-04-07T20:24:27.014Z,4.66
2023-04-07T20:26:53.710Z,4.88
2023-04-07T20:29:22.150Z,4.95
2023-04-07T20:31:49.010Z,4.96
2023-04-07T20:34:15.744Z,4.70
2023-04-07T20:36:42.376Z,4.59
2023-04-07T20:39:08.999Z,4.68
2023-04-07T20:41:35.818Z,4.41
2023-04-07T20:44:02.480Z,4.61
2023-04-07T20:46:29.105Z,4.65
2023-04-07T20:48:55.808Z,4.64
2023-04-07T20:51:22.525Z,4.72
2023-04-07T20:53:49.271Z,4.83
2023-04-07T20:56:15.911Z,4.61
2023-04-07T20:58:42.558Z,4.62
2023-04-07T21:01:09.345Z,3.92
2023-04-07T21:03:36.257Z,4.05
2023-04-07T21:06:03.154Z,4.25
2023-04-07T21:08:29.918Z,4.27
2023-04-07T21:10:56.532Z,4.14
2023-04-07T21:13:23.133Z,4.27
2023-04-07T21:15:49.840Z,4.27
2023-04-07T21:18:18.037Z,4.16
2023-04-07T21:20:45.820Z,4.22
2023-04-07T21:23:12.502Z,4.11
2023-04-07T21:25:39.310Z,4.27
2023-04-07T21:28:05.995Z,4.43
2023-04-07T21:30:32.715Z,4.43
2023-04-07T21:32:59.416Z,4.22
2023-04-07T21:35:29.204Z,4.13
2023-04-07T21:37:56.403Z,4.27
2023-04-07T21:40:23.157Z,4.45
2023-04-07T21:42:49.860Z,4.58
2023-04-07T21:45:16.703Z,4.34
2023-04-07T21:47:43.357Z,4.38
2023-04-07T21:50:10.722Z,4.16
2023-04-07T21:52:37.397Z,4.27
2023-04-07T21:55:04.275Z,4.31
2023-04-07T21:57:30.969Z,4.30
2023-04-07T21:59:57.810Z,4.51
2023-04-07T22:02:24.691Z,4.32
2023-04-07T22:04:51.581Z,4.30
2023-04-07T22:07:18.401Z,3.96
2023-04-07T22:09:45.076Z,4.18
2023-04-07T22:12:11.894Z,4.38
2023-04-07T22:14:38.644Z,4.52
2023-04-07T22:17:05.623Z,4.44
2023-04-07T22:19:32.254Z,4.09
2023-04-07T22:21:59.057Z,3.80
2023-04-07T22:24:25.787Z,3.71
2023-04-07T22:26:52.404Z,4.06
2023-04-07T22:29:19.029Z,4.10
2023-04-07T22:31:45.758Z,3.78
2023-04-07T22:34:12.444Z,4.32
2023-04-07T22:36:39.142Z,4.15
2023-04-07T22:39:05.742Z,4.27
2023-04-07T22:41:32.436Z,4.16
2023-04-07T22:43:59.185Z,4.31
2023-04-07T22:46:25.780Z,4.29
2023-04-07T22:48:52.512Z,4.10
2023-04-07T22:51:19.148Z,4.07
2023-04-07T22:53:45.872Z,4.25
2023-04-07T22:56:12.840Z,4.24
2023-04-07T22:58:39.822Z,4.15
2023-04-07T23:01:06.598Z,4.07
2023-04-07T23:03:33.336Z,4.22
2023-04-07T23:06:00.045Z,4.48
2023-04-07T23:08:26.644Z,4.34
2023-04-07T23:10:53.420Z,4.71
2023-04-07T23:13:20.099Z,4.65
2023-04-07T23:15:46.885Z,4.31
2023-04-07T23:18:13.527Z,4.28
2023-04-07T23:20:41.224Z,4.21
2023-04-07T23:23:07.846Z,3.91
2023-04-07T23:25:34.489Z,3.95
2023-04-07T23:28:01.152Z,3.80
2023-04-07T23:30:27.767Z,4.10
2023-04-07T23:32:54.393Z,3.96
2023-04-07T23:35:21.203Z,3.71
2023-04-07T23:37:48.031Z,3.83
2023-04-07T23:40:14.831Z,3.75
2023-04-07T23:42:41.542Z,3.93
2023-04-07T23:45:08.704Z,3.86
2023-04-07T23:47:35.374Z,4.16
2023-04-07T23:50:02.124Z,3.94
2023-04-07T23:52:28.799Z,3.92
2023-04-07T23:54:55.440Z,3.92
2023-04-07T23:57:22.186Z,3.97
2023-04-07T23:59:48.838Z,3.68
